Time;durP1;ratioP1;P1;durP2;ratioP2;P2;SDS_P1;SDS_P2;PMS_P1;PMS_P2;Temp;Humidity;BMP_temperature;BMP_pressure;BME280_temperature;BME280_humidity;BME280_pressure;Samples;Min_cycle;Max_cycle;Signal;HPM_P1;HPM_P2
2021/07/17 00:01:11;;;;;;;5.18;1.70;;;;;;;-140.79;100.00;63287.88;4988985;28;20030;-77
2021/07/17 00:03:37;;;;;;;3.95;1.90;;;;;;;-140.79;100.00;63287.88;4989003;28;20046;-77
2021/07/17 00:06:03;;;;;;;3.55;1.85;;;;;;;-140.79;100.00;63287.88;4989344;28;20022;-76
2021/07/17 00:08:29;;;;;;;3.95;1.95;;;;;;;-140.79;100.00;63287.88;4988784;28;20034;-77
2021/07/17 00:10:54;;;;;;;2.15;1.45;;;;;;;-140.79;100.00;63287.88;4989144;28;20025;-77
2021/07/17 00:13:20;;;;;;;2.88;1.85;;;;;;;-140.79;100.00;63287.88;4989118;28;20022;-77
2021/07/17 00:15:46;;;;;;;3.47;2.35;;;;;;;-140.79;100.00;63287.88;4988277;28;20034;-77
2021/07/17 00:18:14;;;;;;;3.08;2.05;;;;;;;-140.79;100.00;63287.88;4971208;28;20029;-76
2021/07/17 00:20:41;;;;;;;3.17;1.85;;;;;;;-140.79;100.00;63287.88;4989071;28;20046;-77
2021/07/17 00:23:06;;;;;;;3.47;1.88;;;;;;;-140.79;100.00;63287.88;4988977;28;20089;-77
2021/07/17 00:25:31;;;;;;;2.38;1.80;;;;;;;-140.79;100.00;63287.88;4988689;28;20037;-77
2021/07/17 00:27:59;;;;;;;3.17;2.15;;;;;;;-140.79;100.00;63287.88;4989122;28;20026;-77
2021/07/17 00:30:24;;;;;;;3.45;1.80;;;;;;;-140.79;100.00;63287.88;4971217;28;20034;-77
2021/07/17 00:32:49;;;;;;;4.05;2.10;;;;;;;-140.79;100.00;63287.88;4988922;28;20049;-77
2021/07/17 00:35:15;;;;;;;3.40;1.92;;;;;;;-140.79;100.00;63287.88;4992837;28;20521;-77
2021/07/17 00:37:40;;;;;;;4.50;2.13;;;;;;;-140.79;100.00;63287.88;4992800;28;20489;-77
2021/07/17 00:40:07;;;;;;;4.50;1.92;;;;;;;-140.79;100.00;63287.88;4992978;28;20037;-77
2021/07/17 00:42:33;;;;;;;4.00;1.98;;;;;;;-140.79;100.00;63287.88;4992418;28;20030;-77
2021/07/17 00:44:59;;;;;;;3.70;1.92;;;;;;;-140.79;100.00;63287.88;4958756;28;20493;-76
2021/07/17 00:47:24;;;;;;;3.45;2.00;;;;;;;-140.79;100.00;63287.88;4975043;28;20133;-77
2021/07/17 00:49:50;;;;;;;3.10;2.05;;;;;;;-140.79;100.00;63287.88;4959104;28;20057;-77
2021/07/17 00:52:15;;;;;;;4.05;2.50;;;;;;;-140.79;100.00;63287.88;4974886;28;20078;-76
2021/07/17 00:54:41;;;;;;;5.80;2.20;;;;;;;-140.79;100.00;63287.88;4992015;28;20029;-76
2021/07/17 00:57:06;;;;;;;3.67;2.45;;;;;;;-140.79;100.00;63287.88;4974959;28;20037;-76
2021/07/17 00:59:33;;;;;;;2.85;2.10;;;;;;;-140.79;100.00;63287.88;4958734;28;20029;-76
2021/07/17 01:01:58;;;;;;;4.28;2.20;;;;;;;-140.79;100.00;63287.88;4974872;28;20018;-77
2021/07/17 01:04:25;;;;;;;3.35;2.22;;;;;;;-140.79;100.00;63287.88;4992381;28;20054;-77
2021/07/17 01:06:50;;;;;;;4.43;2.60;;;;;;;-140.79;100.00;63287.88;4992503;28;20030;-77
2021/07/17 01:09:15;;;;;;;3.78;2.22;;;;;;;-140.79;100.00;63287.88;4974507;28;20034;-77
2021/07/17 01:11:41;;;;;;;3.80;2.30;;;;;;;-140.79;100.00;63287.88;4974250;28;20025;-77
2021/07/17 01:14:06;;;;;;;5.25;2.30;;;;;;;-140.79;100.00;63287.88;4991412;28;20467;-77
2021/07/17 01:16:32;;;;;;;3.30;1.92;;;;;;;-140.79;100.00;63287.88;4992237;28;20034;-77
2021/07/17 01:18:58;;;;;;;4.05;2.35;;;;;;;-140.79;100.00;63287.88;4974260;28;20037;-77
2021/07/17 01:21:23;;;;;;;3.72;2.08;;;;;;;-140.79;100.00;63287.88;4992090;28;20026;-77
2021/07/17 01:23:49;;;;;;;4.00;2.33;;;;;;;-140.79;100.00;63287.88;4974342;28;20037;-77
2021/07/17 01:26:15;;;;;;;3.75;2.50;;;;;;;-140.79;100.00;63287.88;4992114;28;20041;-77
2021/07/17 01:28:40;;;;;;;4.57;2.58;;;;;;;-140.79;100.00;63287.88;4991720;28;20550;-77
2021/07/17 01:31:06;;;;;;;3.60;2.53;;;;;;;-140.79;100.00;63287.88;4974079;28;20053;-77
2021/07/17 01:33:32;;;;;;;3.60;2.00;;;;;;;-140.79;100.00;63287.88;4992013;28;20566;-77
2021/07/17 01:35:57;;;;;;;3.72;2.25;;;;;;;-140.79;100.00;63287.88;4991879;28;20033;-77
2021/07/17 01:38:23;;;;;;;2.47;2.10;;;;;;;-140.79;100.00;63287.88;4991992;28;20065;-77
2021/07/17 01:40:48;;;;;;;4.45;2.30;;;;;;;-140.79;100.00;63287.88;4991516;28;20034;-77
2021/07/17 01:43:14;;;;;;;4.82;2.70;;;;;;;-140.79;100.00;63287.88;4992261;28;20057;-77
2021/07/17 01:45:39;;;;;;;4.18;2.40;;;;;;;-140.79;100.00;63287.88;4957678;28;20034;-77
2021/07/17 01:48:06;;;;;;;5.85;3.20;;;;;;;-140.79;100.00;63287.88;4974751;28;20033;-77
2021/07/17 01:50:32;;;;;;;3.83;2.33;;;;;;;-140.79;100.00;63287.88;4992070;28;20053;-78
2021/07/17 01:53:00;;;;;;;4.03;2.40;;;;;;;-140.79;100.00;63287.88;4955245;28;20034;-77
2021/07/17 01:55:26;;;;;;;3.72;2.58;;;;;;;-140.79;100.00;63287.88;4939196;28;20039;-78
2021/07/17 01:57:52;;;;;;;4.20;2.67;;;;;;;-140.79;100.00;63287.88;4938443;28;20097;-77
2021/07/17 02:00:18;;;;;;;3.47;2.47;;;;;;;-140.79;100.00;63287.88;4954808;28;20027;-77
2021/07/17 02:02:44;;;;;;;6.68;3.10;;;;;;;-140.79;100.00;63287.88;4972730;28;20062;-77
2021/07/17 02:05:10;;;;;;;5.10;2.80;;;;;;;-140.79;100.00;63287.88;4939285;28;20027;-78
2021/07/17 02:07:35;;;;;;;4.82;2.70;;;;;;;-140.79;100.00;63287.88;4972033;28;20095;-78
2021/07/17 02:10:10;;;;;;;8.23;3.53;;;;;;;-140.79;100.00;63287.88;4971567;28;20050;-78
2021/07/17 02:12:39;;;;;;;4.10;3.25;;;;;;;-140.79;100.00;63287.88;4971787;28;20199;-78
2021/07/17 02:15:07;;;;;;;5.10;2.70;;;;;;;-140.79;100.00;63287.88;4977599;28;20065;-78
2021/07/17 02:17:32;;;;;;;10.90;4.38;;;;;;;-140.79;100.00;63287.88;4990202;28;20030;-78
2021/07/17 02:19:58;;;;;;;4.03;2.53;;;;;;;-140.79;100.00;63287.88;4956185;28;20037;-78
2021/07/17 02:22:23;;;;;;;5.47;3.20;;;;;;;-140.79;100.00;63287.88;4990265;28;20041;-78
2021/07/17 02:24:49;;;;;;;4.95;3.00;;;;;;;-140.79;100.00;63287.88;4990481;28;20031;-78
2021/07/17 02:27:14;;;;;;;4.82;2.78;;;;;;;-140.79;100.00;63287.88;4990936;28;20022;-78
2021/07/17 02:29:40;;;;;;;4.25;2.70;;;;;;;-140.79;100.00;63287.88;4990391;28;20067;-77
2021/07/17 02:32:05;;;;;;;4.03;2.72;;;;;;;-140.79;100.00;63287.88;4991271;28;20038;-77
2021/07/17 02:34:31;;;;;;;5.38;2.42;;;;;;;-140.79;100.00;63287.88;4990541;28;20042;-77
2021/07/17 02:36:56;;;;;;;3.15;2.40;;;;;;;-140.79;100.00;63287.88;4986869;28;20031;-77
2021/07/17 02:39:22;;;;;;;4.93;2.80;;;;;;;-140.79;100.00;63287.88;4990882;28;20030;-77
2021/07/17 02:41:47;;;;;;;4.60;2.42;;;;;;;-140.79;100.00;63287.88;4990950;28;20101;-77
2021/07/17 02:44:12;;;;;;;3.33;2.55;;;;;;;-140.79;100.00;63287.88;4973078;28;20038;-77
2021/07/17 02:46:38;;;;;;;5.93;2.70;;;;;;;-140.79;100.00;63287.88;4990564;28;20498;-77
2021/07/17 02:49:03;;;;;;;4.25;2.60;;;;;;;-140.79;100.00;63287.88;4989180;28;20030;-77
2021/07/17 02:51:29;;;;;;;7.50;2.60;;;;;;;-140.79;100.00;63287.88;4990510;28;20054;-77
2021/07/17 02:53:54;;;;;;;8.18;2.60;;;;;;;-140.79;100.00;63287.88;4990687;28;20022;-77
2021/07/17 02:56:20;;;;;;;6.35;2.80;;;;;;;-140.79;100.00;63287.88;4988689;28;20029;-77
2021/07/17 02:58:45;;;;;;;5.15;2.50;;;;;;;-140.79;100.00;63287.88;4989702;28;20022;-78
2021/07/17 03:01:10;;;;;;;4.60;2.53;;;;;;;-140.79;100.00;63287.88;4979022;28;20022;-77
2021/07/17 03:03:36;;;;;;;5.20;2.38;;;;;;;-140.79;100.00;63287.88;4970151;28;20050;-77
2021/07/17 03:06:01;;;;;;;4.57;2.40;;;;;;;-140.79;100.00;63287.88;4970468;28;20042;-77
2021/07/17 03:08:27;;;;;;;6.47;2.35;;;;;;;-140.79;100.00;63287.88;4970536;28;20494;-78
2021/07/17 03:10:55;;;;;;;4.18;2.92;;;;;;;-140.79;100.00;63287.88;4971221;28;20572;-77
2021/07/17 03:13:21;;;;;;;3.85;2.88;;;;;;;-140.79;100.00;63287.88;4974983;28;20035;-77
2021/07/17 03:15:48;;;;;;;5.22;2.67;;;;;;;-140.79;100.00;63287.88;4970405;28;20034;-77
2021/07/17 03:18:14;;;;;;;5.65;2.47;;;;;;;-140.79;100.00;63287.88;4970988;28;20047;-77
2021/07/17 03:20:39;;;;;;;5.88;2.70;;;;;;;-140.79;100.00;63287.88;4970749;28;20534;-77
2021/07/17 03:23:05;;;;;;;5.07;2.90;;;;;;;-140.79;100.00;63287.88;4970130;28;20409;-77
2021/07/17 03:25:30;;;;;;;5.18;2.50;;;;;;;-140.79;100.00;63287.88;4969968;28;20133;-78
2021/07/17 03:27:56;;;;;;;5.15;2.58;;;;;;;-140.79;100.00;63287.88;4970211;28;20022;-77
2021/07/17 03:30:21;;;;;;;4.78;2.83;;;;;;;-140.79;100.00;63287.88;4969984;28;20054;-77
2021/07/17 03:32:47;;;;;;;5.13;2.67;;;;;;;-140.79;100.00;63287.88;4970853;28;20030;-77
2021/07/17 03:35:12;;;;;;;4.47;2.60;;;;;;;-140.79;100.00;63287.88;4969882;28;20026;-77
2021/07/17 03:37:38;;;;;;;5.35;2.40;;;;;;;-140.79;100.00;63287.88;4969762;28;20098;-77
2021/07/17 03:40:04;;;;;;;4.85;2.38;;;;;;;-140.79;100.00;63287.88;4970048;28;20037;-77
2021/07/17 03:42:30;;;;;;;5.85;2.80;;;;;;;-140.79;100.00;63287.88;4970048;28;20030;-77
2021/07/17 03:44:55;;;;;;;3.67;2.30;;;;;;;-140.79;100.00;63287.88;4969399;28;20034;-77
2021/07/17 03:47:21;;;;;;;4.57;2.65;;;;;;;-140.79;100.00;63287.88;4968806;28;20090;-77
2021/07/17 03:49:46;;;;;;;4.68;2.85;;;;;;;-140.79;100.00;63287.88;4969754;28;20498;-77
2021/07/17 03:52:12;;;;;;;5.55;2.70;;;;;;;-140.79;100.00;63287.88;4969497;28;20034;-77
2021/07/17 03:54:37;;;;;;;5.13;2.72;;;;;;;-140.79;100.00;63287.88;4968111;28;20034;-77
2021/07/17 03:57:03;;;;;;;7.70;3.05;;;;;;;-140.79;100.00;63287.88;4968773;28;20517;-77
2021/07/17 03:59:28;;;;;;;4.43;3.00;;;;;;;-140.79;100.00;63287.88;4983128;28;20054;-77
2021/07/17 04:01:54;;;;;;;6.00;2.85;;;;;;;-140.79;100.00;63287.88;4972123;28;20863;-78
2021/07/17 04:04:19;;;;;;;4.70;3.13;;;;;;;-140.79;100.00;63287.88;4971436;28;20058;-76
2021/07/17 04:06:45;;;;;;;7.32;3.17;;;;;;;-140.79;100.00;63287.88;4988814;28;20026;-78
2021/07/17 04:09:10;;;;;;;7.35;3.67;;;;;;;-140.79;100.00;63287.88;4990330;28;20093;-77
2021/07/17 04:11:36;;;;;;;5.05;3.50;;;;;;;-140.79;100.00;63287.88;4983489;28;20042;-78
2021/07/17 04:14:01;;;;;;;5.20;3.85;;;;;;;-140.79;100.00;63287.88;4976391;28;20129;-78
2021/07/17 04:16:30;;;;;;;5.22;3.47;;;;;;;-140.79;100.00;63287.88;4975233;28;20417;-78
2021/07/17 04:18:55;;;;;;;8.43;4.30;;;;;;;-140.79;100.00;63287.88;4983656;28;20057;-78
2021/07/17 04:21:21;;;;;;;6.30;3.75;;;;;;;-140.79;100.00;63287.88;4976198;28;20030;-81
2021/07/17 04:23:46;;;;;;;5.53;3.80;;;;;;;-140.79;100.00;63287.88;4984413;28;20029;-84
2021/07/17 04:26:12;;;;;;;7.40;4.32;;;;;;;-140.79;100.00;63287.88;4973235;28;20034;-80
2021/07/17 04:28:37;;;;;;;8.90;4.10;;;;;;;-140.79;100.00;63287.88;4989845;28;20464;-81
2021/07/17 04:31:03;;;;;;;5.63;4.25;;;;;;;-140.79;100.00;63287.88;4953789;28;20053;-75
2021/07/17 04:33:28;;;;;;;6.82;4.00;;;;;;;-140.79;100.00;63287.88;4972645;28;20026;-76
2021/07/17 04:35:54;;;;;;;7.43;3.90;;;;;;;-140.79;100.00;63287.88;4987203;28;20406;-75
2021/07/17 04:38:19;;;;;;;6.72;4.10;;;;;;;-140.79;100.00;63287.88;4977524;28;20030;-78
2021/07/17 04:40:45;;;;;;;7.35;4.20;;;;;;;-140.79;100.00;63287.88;4978014;28;20117;-78
2021/07/17 04:43:10;;;;;;;6.78;4.10;;;;;;;-140.79;100.00;63287.88;4972845;28;20421;-77
2021/07/17 04:45:36;;;;;;;8.68;4.68;;;;;;;-140.79;100.00;63287.88;4973471;28;20038;-77
2021/07/17 04:48:04;;;;;;;7.15;4.25;;;;;;;-140.79;100.00;63287.88;4970210;28;20114;-76
2021/07/17 04:50:33;;;;;;;6.55;3.83;;;;;;;-140.79;100.00;63287.88;4955443;28;20031;-78
2021/07/17 04:52:59;;;;;;;8.50;3.78;;;;;;;-140.79;100.00;63287.88;4970680;28;20043;-81
2021/07/17 04:55:25;;;;;;;9.73;4.30;;;;;;;-140.79;100.00;63287.88;4984325;28;20124;-81
2021/07/17 04:57:51;;;;;;;7.78;4.13;;;;;;;-140.79;100.00;63287.88;4989485;28;20049;-77
2021/07/17 05:00:16;;;;;;;5.95;4.18;;;;;;;-140.79;100.00;63287.88;4986056;28;20034;-80
2021/07/17 05:02:50;;;;;;;8.85;3.95;;;;;;;-140.79;100.00;63287.88;4976578;28;20066;-77
2021/07/17 05:05:17;;;;;;;6.15;4.10;;;;;;;-140.79;100.00;63287.88;4970368;28;20030;-78
2021/07/17 05:07:43;;;;;;;6.75;4.50;;;;;;;-140.79;100.00;63287.88;4922394;28;20139;-75
2021/07/17 05:10:10;;;;;;;9.15;4.38;;;;;;;-140.79;100.00;63287.88;4969009;28;20077;-75
2021/07/17 05:12:35;;;;;;;5.53;3.88;;;;;;;-140.79;100.00;63287.88;4972556;28;20031;-75
2021/07/17 05:15:01;;;;;;;9.45;4.38;;;;;;;-140.79;100.00;63287.88;4978197;28;20030;-86
2021/07/17 05:17:26;;;;;;;9.15;4.03;;;;;;;-140.79;100.00;63287.88;4960406;28;20041;-85
2021/07/17 05:19:52;;;;;;;9.77;4.80;;;;;;;-140.79;100.00;63287.88;4964053;28;20023;-83
2021/07/17 05:22:17;;;;;;;8.73;4.82;;;;;;;-140.79;100.00;63287.88;4978380;28;20489;-85
2021/07/17 05:24:43;;;;;;;7.50;4.90;;;;;;;-140.79;100.00;63287.88;4978721;28;20030;-81
2021/07/17 05:27:09;;;;;;;6.95;4.95;;;;;;;-140.79;100.00;63287.88;4965637;28;20030;-78
2021/07/17 05:29:34;;;;;;;8.23;4.72;;;;;;;-140.79;100.00;63287.88;4973246;28;20037;-82
2021/07/17 05:31:59;;;;;;;7.82;4.93;;;;;;;-140.79;100.00;63287.88;4976735;28;20053;-79
2021/07/17 05:34:25;;;;;;;12.60;5.15;;;;;;;-140.79;100.00;63287.88;4977663;28;20445;-82
2021/07/17 05:36:50;;;;;;;9.18;5.32;;;;;;;-140.79;100.00;63287.88;4976967;28;20029;-79
2021/07/17 05:39:16;;;;;;;8.90;4.80;;;;;;;-140.79;100.00;63287.88;4982474;28;20022;-80
2021/07/17 05:41:41;;;;;;;8.65;4.50;;;;;;;-140.79;100.00;63287.88;4979257;28;20031;-85
2021/07/17 05:44:07;;;;;;;7.65;4.75;;;;;;;-140.79;100.00;63287.88;4977554;28;20030;-81
2021/07/17 05:46:32;;;;;;;9.60;4.80;;;;;;;-140.79;100.00;63287.88;4980823;28;20034;-87
2021/07/17 05:48:58;;;;;;;7.60;4.75;;;;;;;-140.79;100.00;63287.88;4982428;28;20030;-80
2021/07/17 05:51:23;;;;;;;7.60;4.28;;;;;;;-140.79;100.00;63287.88;4975693;28;20034;-81
2021/07/17 05:53:49;;;;;;;11.10;4.55;;;;;;;-140.79;100.00;63287.88;4979988;28;20031;-80
2021/07/17 05:56:14;;;;;;;7.35;4.35;;;;;;;-140.79;100.00;63287.88;4977149;28;20034;-87
2021/07/17 05:58:40;;;;;;;7.53;5.10;;;;;;;-140.79;100.00;63287.88;4964291;28;20039;-85
2021/07/17 06:01:05;;;;;;;6.57;4.25;;;;;;;-140.79;100.00;63287.88;4976871;28;20023;-79
2021/07/17 06:03:31;;;;;;;8.30;4.38;;;;;;;-140.79;100.00;63287.88;4947506;28;20049;-81
2021/07/17 06:05:56;;;;;;;8.02;4.45;;;;;;;-140.79;100.00;63287.88;4967987;28;20034;-82
2021/07/17 06:08:22;;;;;;;10.30;4.28;;;;;;;-140.79;100.00;63287.88;4977858;28;20038;-78
2021/07/17 06:10:47;;;;;;;7.38;3.90;;;;;;;-140.79;100.00;63287.88;4975508;28;20030;-79
2021/07/17 06:13:12;;;;;;;7.70;3.95;;;;;;;-140.79;100.00;63287.88;4981647;28;20038;-76
2021/07/17 06:15:38;;;;;;;8.13;4.13;;;;;;;-140.79;100.00;63287.88;4987821;28;20358;-77
2021/07/17 06:18:03;;;;;;;7.70;4.20;;;;;;;-140.79;100.00;63287.88;4983117;28;20034;-77
2021/07/17 06:20:29;;;;;;;6.95;3.95;;;;;;;-140.79;100.00;63287.88;4992243;28;20042;-76
2021/07/17 06:22:55;;;;;;;7.35;3.28;;;;;;;-140.79;100.00;63287.88;4967588;28;20033;-77
2021/07/17 06:25:20;;;;;;;8.13;3.47;;;;;;;-140.79;100.00;63287.88;4990744;28;20018;-78
2021/07/17 06:27:46;;;;;;;4.47;2.70;;;;;;;-140.79;100.00;63287.88;4987978;28;20026;-76
2021/07/17 06:30:11;;;;;;;9.48;3.15;;;;;;;-140.79;100.00;63287.88;4987722;28;20030;-82
2021/07/17 06:32:37;;;;;;;6.03;2.90;;;;;;;-140.79;100.00;63287.88;4989546;28;20504;-81
2021/07/17 06:35:03;;;;;;;5.07;3.03;;;;;;;-140.79;100.00;63287.88;4986868;28;20599;-86
2021/07/17 06:37:28;;;;;;;8.25;2.67;;;;;;;-140.79;100.00;63287.88;4988333;28;20429;-77
2021/07/17 06:39:53;;;;;;;5.18;2.85;;;;;;;-140.79;100.00;63287.88;4968413;28;20082;-77
2021/07/17 06:42:19;;;;;;;4.10;2.67;;;;;;;-140.79;100.00;63287.88;4965316;28;20673;-79
2021/07/17 06:44:44;;;;;;;7.68;3.45;;;;;;;-140.79;100.00;63287.88;4972648;28;20022;-86
2021/07/17 06:47:10;;;;;;;4.75;2.60;;;;;;;-140.79;100.00;63287.88;4955213;28;20385;-80
2021/07/17 06:49:35;;;;;;;5.10;2.60;;;;;;;-140.79;100.00;63287.88;4983323;28;20409;-78
2021/07/17 06:52:01;;;;;;;4.80;2.45;;;;;;;-140.79;100.00;63287.88;4967196;28;20366;-79
2021/07/17 06:54:26;;;;;;;4.28;2.47;;;;;;;-140.79;100.00;63287.88;4983822;28;20746;-76
2021/07/17 06:56:51;;;;;;;6.28;2.53;;;;;;;-140.79;100.00;63287.88;4985770;28;20161;-75
2021/07/17 06:59:17;;;;;;;8.57;2.70;;;;;;;-140.79;100.00;63287.88;4980792;28;20120;-73
2021/07/17 07:01:42;;;;;;;4.13;2.30;;;;;;;-140.79;100.00;63287.88;4971435;28;20034;-75
2021/07/17 07:04:08;;;;;;;7.22;2.42;;;;;;;-140.79;100.00;63287.88;4981105;28;20054;-76
2021/07/17 07:06:33;;;;;;;7.20;3.03;;;;;;;-140.79;100.00;63287.88;4981553;28;20030;-78
2021/07/17 07:08:58;;;;;;;4.97;2.50;;;;;;;-140.79;100.00;63287.88;4984594;28;20033;-79
2021/07/17 07:11:24;;;;;;;5.70;2.38;;;;;;;-140.79;100.00;63287.88;4984113;28;20038;-76
2021/07/17 07:13:49;;;;;;;3.95;2.38;;;;;;;-140.79;100.00;63287.88;4975729;28;20047;-77
2021/07/17 07:16:15;;;;;;;9.82;2.97;;;;;;;-140.79;100.00;63287.88;4990623;28;20050;-78
2021/07/17 07:18:40;;;;;;;6.15;3.08;;;;;;;-140.79;100.00;63287.88;5006982;28;20022;-79
2021/07/17 07:21:06;;;;;;;8.32;2.42;;;;;;;-140.79;100.00;63287.88;4996761;28;20037;-78
2021/07/17 07:23:33;;;;;;;8.48;2.72;;;;;;;-140.79;100.00;63287.88;4981216;28;20033;-77
2021/07/17 07:25:59;;;;;;;6.72;2.38;;;;;;;-140.79;100.00;63287.88;4987575;28;20018;-76
2021/07/17 07:28:24;;;;;;;4.18;2.33;;;;;;;-140.79;100.00;63287.88;4985209;28;20030;-77
2021/07/17 07:30:50;;;;;;;7.50;2.30;;;;;;;-140.79;100.00;63287.88;4986487;28;20396;-76
2021/07/17 07:33:15;;;;;;;4.10;2.30;;;;;;;-140.79;100.00;63287.88;4976667;28;20520;-76
2021/07/17 07:35:40;;;;;;;5.85;2.88;;;;;;;-140.79;100.00;63287.88;4990087;28;20030;-76
2021/07/17 07:38:06;;;;;;;5.32;2.55;;;;;;;-140.79;100.00;63287.88;4984625;28;20039;-78
2021/07/17 07:40:31;;;;;;;4.68;2.40;;;;;;;-140.79;100.00;63287.88;4974733;28;20030;-76
2021/07/17 07:42:57;;;;;;;7.28;2.80;;;;;;;-140.79;100.00;63287.88;4962564;28;20085;-77
2021/07/17 07:45:23;;;;;;;6.40;2.80;;;;;;;-140.79;100.00;63287.88;4971647;28;20041;-80
2021/07/17 07:47:49;;;;;;;5.47;2.55;;;;;;;-140.79;100.00;63287.88;4982400;28;20528;-78
2021/07/17 07:50:14;;;;;;;5.95;2.60;;;;;;;-140.79;100.00;63287.88;4984427;28;20485;-81
2021/07/17 07:52:40;;;;;;;4.95;2.50;;;;;;;-140.79;100.00;63287.88;4972578;28;20022;-78
2021/07/17 07:55:06;;;;;;;4.78;2.65;;;;;;;-140.79;100.00;63287.88;4987676;28;20416;-77
2021/07/17 07:57:31;;;;;;;6.15;2.70;;;;;;;-140.79;100.00;63287.88;4988105;28;20045;-79
2021/07/17 07:59:57;;;;;;;6.00;2.70;;;;;;;-140.79;100.00;63287.88;4989351;28;20034;-75
2021/07/17 08:02:32;;;;;;;4.05;2.70;;;;;;;-140.79;100.00;63287.88;4983934;28;20041;-77
2021/07/17 08:04:57;;;;;;;3.97;2.58;;;;;;;-140.79;100.00;63287.88;4968911;28;20085;-77
2021/07/17 08:07:25;;;;;;;5.25;2.65;;;;;;;-140.79;100.00;63287.88;4983179;28;20034;-77
2021/07/17 08:09:51;;;;;;;4.10;2.55;;;;;;;-140.79;100.00;63287.88;4985347;28;20022;-76
2021/07/17 08:12:16;;;;;;;3.88;2.20;;;;;;;-140.79;100.00;63287.88;4982380;28;20022;-76
2021/07/17 08:14:42;;;;;;;5.70;2.38;;;;;;;-140.79;100.00;63287.88;4985072;28;20425;-76
2021/07/17 08:17:08;;;;;;;4.78;2.63;;;;;;;-140.79;100.00;63287.88;4984269;28;20486;-76
2021/07/17 08:19:34;;;;;;;3.97;2.30;;;;;;;-140.79;100.00;63287.88;4984420;28;20033;-77
2021/07/17 08:21:59;;;;;;;3.38;2.17;;;;;;;-140.79;100.00;63287.88;4970459;28;20081;-76
2021/07/17 08:24:25;;;;;;;6.40;2.50;;;;;;;-140.79;100.00;63287.88;4985775;28;20022;-78
2021/07/17 08:26:50;;;;;;;3.22;2.05;;;;;;;-140.79;100.00;63287.88;4988330;28;20053;-77
2021/07/17 08:29:16;;;;;;;4.82;2.03;;;;;;;-140.79;100.00;63287.88;4986885;28;20045;-78
2021/07/17 08:31:41;;;;;;;4.32;2.30;;;;;;;-140.79;100.00;63287.88;4988094;28;20030;-78
2021/07/17 08:34:07;;;;;;;3.78;2.05;;;;;;;-140.79;100.00;63287.88;4983240;28;20112;-78
2021/07/17 08:36:33;;;;;;;4.25;2.30;;;;;;;-140.79;100.00;63287.88;4989659;28;20030;-78
2021/07/17 08:38:58;;;;;;;4.95;2.00;;;;;;;-140.79;100.00;63287.88;4983490;28;20492;-77
2021/07/17 08:41:26;;;;;;;5.32;2.00;;;;;;;-140.79;100.00;63287.88;4995390;28;20101;-78
2021/07/17 08:43:53;;;;;;;4.65;1.98;;;;;;;-140.79;100.00;63287.88;4968576;28;20023;-78
2021/07/17 08:46:19;;;;;;;4.88;2.20;;;;;;;-140.79;100.00;63287.88;4988727;28;20030;-79
2021/07/17 08:48:45;;;;;;;2.95;2.17;;;;;;;-140.79;100.00;63287.88;4968961;28;20031;-77
2021/07/17 08:51:10;;;;;;;4.90;2.10;;;;;;;-140.79;100.00;63287.88;4987958;28;20550;-78
2021/07/17 08:53:36;;;;;;;5.63;2.17;;;;;;;-140.79;100.00;63287.88;4966101;28;20038;-78
2021/07/17 08:56:01;;;;;;;6.10;2.20;;;;;;;-140.79;100.00;63287.88;4969135;28;20030;-78
2021/07/17 08:58:27;;;;;;;4.75;2.72;;;;;;;-140.79;100.00;63287.88;4975436;28;20042;-78
2021/07/17 09:00:52;;;;;;;4.70;2.00;;;;;;;-140.79;100.00;63287.88;4993124;28;20025;-78
2021/07/17 09:03:18;;;;;;;4.47;2.10;;;;;;;-140.79;100.00;63287.88;4988185;28;20532;-78
2021/07/17 09:05:48;;;;;;;4.53;2.33;;;;;;;-140.79;100.00;63287.88;4971752;28;20084;-78
2021/07/17 09:08:15;;;;;;;3.33;2.10;;;;;;;-140.79;100.00;63287.88;4985245;28;20064;-78
2021/07/17 09:10:48;;;;;;;3.42;1.92;;;;;;;-140.79;100.00;63287.88;4993097;28;20112;-78
2021/07/17 09:13:27;;;;;;;3.28;1.80;;;;;;;-140.79;100.00;63287.88;4988227;28;20038;-77
2021/07/17 09:16:06;;;;;;;3.47;2.00;;;;;;;-140.79;100.00;63287.88;4994897;28;20056;-77
2021/07/17 09:18:35;;;;;;;4.55;1.98;;;;;;;-140.79;100.00;63287.88;4992162;28;20042;-77
2021/07/17 09:21:17;;;;;;;3.95;2.08;;;;;;;-140.79;100.00;63287.88;4992561;28;20100;-77
2021/07/17 09:23:45;;;;;;;3.95;1.75;;;;;;;-140.79;100.00;63287.88;4991881;28;20096;-77
2021/07/17 09:26:23;;;;;;;3.47;1.92;;;;;;;-140.79;100.00;63287.88;4991760;28;20027;-77
2021/07/17 09:29:04;;;;;;;4.10;2.08;;;;;;;-140.79;100.00;63287.88;4992310;28;20042;-77
2021/07/17 09:31:36;;;;;;;2.55;1.70;;;;;;;-140.79;100.00;63287.88;4974189;28;20464;-77
2021/07/17 09:34:07;;;;;;;4.90;2.20;;;;;;;-140.79;100.00;63287.88;4991447;28;20030;-77
2021/07/17 09:36:33;;;;;;;2.92;1.58;;;;;;;-140.79;100.00;63287.88;4991805;28;20038;-77
2021/07/17 09:38:58;;;;;;;2.90;1.80;;;;;;;-140.79;100.00;63287.88;4974482;28;20026;-77
2021/07/17 09:41:24;;;;;;;3.25;1.83;;;;;;;-140.79;100.00;63287.88;4957443;28;20089;-77
2021/07/17 09:44:00;;;;;;;2.63;1.85;;;;;;;-140.79;100.00;63287.88;4973850;28;20041;-76
2021/07/17 09:46:26;;;;;;;2.67;1.90;;;;;;;-140.79;100.00;63287.88;4991663;28;20034;-77
2021/07/17 09:48:54;;;;;;;4.43;1.80;;;;;;;-140.79;100.00;63287.88;4970224;28;20027;-77
2021/07/17 09:51:22;;;;;;;2.88;1.80;;;;;;;-140.79;100.00;63287.88;4980378;28;20045;-77
2021/07/17 09:53:54;;;;;;;2.72;1.85;;;;;;;-140.79;100.00;63287.88;4973965;28;20034;-76
2021/07/17 09:56:31;;;;;;;4.50;1.70;;;;;;;-140.79;100.00;63287.88;4974338;28;20034;-76
2021/07/17 09:58:58;;;;;;;4.15;1.95;;;;;;;-140.79;100.00;63287.88;4991505;28;20704;-77
2021/07/17 10:01:34;;;;;;;4.07;1.50;;;;;;;-140.79;100.00;63287.88;4992212;28;20524;-77
2021/07/17 10:04:10;;;;;;;3.42;1.70;;;;;;;-140.79;100.00;63287.88;4970692;28;20573;-77
2021/07/17 10:06:46;;;;;;;2.83;1.60;;;;;;;-140.79;100.00;63287.88;4966340;28;20102;-77
2021/07/17 10:09:12;;;;;;;4.40;2.10;;;;;;;-140.79;100.00;63287.88;4971979;28;20022;-77
2021/07/17 10:11:37;;;;;;;3.13;1.90;;;;;;;-140.79;100.00;63287.88;4972488;28;20409;-77
2021/07/17 10:14:19;;;;;;;3.28;1.70;;;;;;;-140.79;100.00;63287.88;4971666;28;20100;-77
2021/07/17 10:16:49;;;;;;;3.00;1.90;;;;;;;-140.79;100.00;63287.88;4974112;28;20027;-77
2021/07/17 10:19:14;;;;;;;;;;;;;;;-140.79;100.00;63287.88;4972832;28;20038;-77
2021/07/17 10:21:40;;;;;;;4.68;2.10;;;;;;;-140.79;100.00;63287.88;4972143;28;19910;-77
2021/07/17 10:24:05;;;;;;;2.80;1.73;;;;;;;-140.79;100.00;63287.88;4972694;28;20467;-77
2021/07/17 10:26:31;;;;;;;3.08;1.85;;;;;;;-140.79;100.00;63287.88;4972343;28;20097;-77
2021/07/17 10:29:03;;;;;;;3.05;1.85;;;;;;;-140.79;100.00;63287.88;4970441;28;20027;-77
2021/07/17 10:31:29;;;;;;;2.92;1.80;;;;;;;-140.79;100.00;63287.88;4970946;28;20046;-77
2021/07/17 10:33:54;;;;;;;3.00;1.70;;;;;;;-140.79;100.00;63287.88;4972014;28;20486;-77
2021/07/17 10:36:20;;;;;;;3.17;2.13;;;;;;;-140.79;100.00;63287.88;4970743;28;20023;-77
2021/07/17 10:38:45;;;;;;;3.60;1.75;;;;;;;-140.79;100.00;63287.88;4970536;28;20022;-77
2021/07/17 10:41:13;;;;;;;2.78;1.63;;;;;;;-140.79;100.00;63287.88;4955047;28;20027;-77
2021/07/17 10:43:40;;;;;;;2.85;1.80;;;;;;;-140.79;100.00;63287.88;4970966;28;20113;-77
2021/07/17 10:46:05;;;;;;;3.45;1.95;;;;;;;-140.79;100.00;63287.88;4969235;28;20030;-77
2021/07/17 10:48:32;;;;;;;2.63;1.90;;;;;;;-140.79;100.00;63287.88;4952861;28;20086;-77
2021/07/17 10:51:00;;;;;;;4.22;1.90;;;;;;;-140.79;100.00;63287.88;4970525;28;20035;-77
2021/07/17 10:53:48;;;;;;;3.25;1.65;;;;;;;-140.79;100.00;63287.88;4968999;28;20126;-77
2021/07/17 10:56:30;;;;;;;3.92;1.88;;;;;;;-140.79;100.00;63287.88;4969009;28;20031;-76
2021/07/17 10:58:59;;;;;;;3.13;1.80;;;;;;;-140.79;100.00;63287.88;4970400;28;20034;-77
2021/07/17 11:01:24;;;;;;;3.40;1.80;;;;;;;-140.79;100.00;63287.88;4969014;28;20035;-77
2021/07/17 11:03:50;;;;;;;3.00;1.75;;;;;;;-140.79;100.00;63287.88;4982653;28;20038;-77
2021/07/17 11:06:28;;;;;;;4.65;1.80;;;;;;;-140.79;100.00;63287.88;4972607;28;20026;-77